sensor_id;sensor_type;location;lat;lon;timestamp;temperature;humidity
27026;DHT22;14565;48.626;8.978;2022-07-31T00:00:21;16.40;99.90
27026;DHT22;14565;48.626;8.978;2022-07-31T00:02:47;16.30;99.90
27026;DHT22;14565;48.626;8.978;2022-07-31T00:05:13;16.30;99.90
27026;DHT22;14565;48.626;8.978;2022-07-31T00:07:39;16.20;99.90
27026;DHT22;14565;48.626;8.978;2022-07-31T00:10:05;16.20;99.90
27026;DHT22;14565;48.626;8.978;2022-07-31T00:12:31;16.30;99.90
27026;DHT22;14565;48.626;8.978;2022-07-31T00:14:56;16.30;99.90
27026;DHT22;14565;48.626;8.978;2022-07-31T00:17:22;16.40;99.90
27026;DHT22;14565;48.626;8.978;2022-07-31T00:19:48;16.40;99.90
27026;DHT22;14565;48.626;8.978;2022-07-31T00:22:14;16.40;99.90
27026;DHT22;14565;48.626;8.978;2022-07-31T00:24:39;16.40;99.90
27026;DHT22;14565;48.626;8.978;2022-07-31T00:27:05;16.40;99.90
27026;DHT22;14565;48.626;8.978;2022-07-31T00:29:31;16.50;99.90
27026;DHT22;14565;48.626;8.978;2022-07-31T00:31:57;16.50;99.90
27026;DHT22;14565;48.626;8.978;2022-07-31T00:34:22;16.40;99.90
27026;DHT22;14565;48.626;8.978;2022-07-31T00:36:48;16.50;99.90
27026;DHT22;14565;48.626;8.978;2022-07-31T00:39:14;16.50;99.90
27026;DHT22;14565;48.626;8.978;2022-07-31T00:41:42;16.60;99.90
27026;DHT22;14565;48.626;8.978;2022-07-31T00:44:08;16.70;99.90
27026;DHT22;14565;48.626;8.978;2022-07-31T00:46:34;16.60;99.90
27026;DHT22;14565;48.626;8.978;2022-07-31T00:49:00;16.70;99.90
27026;DHT22;14565;48.626;8.978;2022-07-31T00:51:25;16.70;99.90
27026;DHT22;14565;48.626;8.978;2022-07-31T00:53:51;16.80;99.90
27026;DHT22;14565;48.626;8.978;2022-07-31T00:56:16;16.70;99.90
27026;DHT22;14565;48.626;8.978;2022-07-31T00:58:42;16.70;99.90
27026;DHT22;14565;48.626;8.978;2022-07-31T01:01:08;16.70;99.90
27026;DHT22;14565;48.626;8.978;2022-07-31T01:03:33;16.60;99.90
27026;DHT22;14565;48.626;8.978;2022-07-31T01:06:00;16.50;99.90
27026;DHT22;14565;48.626;8.978;2022-07-31T01:08:25;16.40;99.90
27026;DHT22;14565;48.626;8.978;2022-07-31T01:10:53;16.30;99.90
27026;DHT22;14565;48.626;8.978;2022-07-31T01:13:38;16.30;99.90
27026;DHT22;14565;48.626;8.978;2022-07-31T01:16:06;16.30;99.90
27026;DHT22;14565;48.626;8.978;2022-07-31T01:18:35;16.20;99.90
27026;DHT22;14565;48.626;8.978;2022-07-31T01:21:07;16.20;99.90
27026;DHT22;14565;48.626;8.978;2022-07-31T01:26:35;16.30;99.90
27026;DHT22;14565;48.626;8.978;2022-07-31T01:29:28;16.20;99.90
27026;DHT22;14565;48.626;8.978;2022-07-31T01:32:07;16.10;99.90
27026;DHT22;14565;48.626;8.978;2022-07-31T01:34:45;16.00;99.90
27026;DHT22;14565;48.626;8.978;2022-07-31T01:37:29;15.80;99.90
27026;DHT22;14565;48.626;8.978;2022-07-31T01:40:14;15.70;99.90
27026;DHT22;14565;48.626;8.978;2022-07-31T01:42:49;15.60;99.90
27026;DHT22;14565;48.626;8.978;2022-07-31T01:45:17;15.60;99.90
27026;DHT22;14565;48.626;8.978;2022-07-31T01:47:44;15.50;99.90
27026;DHT22;14565;48.626;8.978;2022-07-31T01:50:10;15.50;99.90
27026;DHT22;14565;48.626;8.978;2022-07-31T01:52:38;15.60;99.90
27026;DHT22;14565;48.626;8.978;2022-07-31T01:55:05;15.60;99.90
27026;DHT22;14565;48.626;8.978;2022-07-31T01:57:35;15.70;99.90
27026;DHT22;14565;48.626;8.978;2022-07-31T02:00:06;15.60;99.90
27026;DHT22;14565;48.626;8.978;2022-07-31T02:02:33;15.60;99.90
27026;DHT22;14565;48.626;8.978;2022-07-31T02:05:02;15.50;99.90
27026;DHT22;14565;48.626;8.978;2022-07-31T02:07:35;15.60;99.90
27026;DHT22;14565;48.626;8.978;2022-07-31T02:10:03;15.50;99.90
27026;DHT22;14565;48.626;8.978;2022-07-31T02:12:29;15.50;99.90
27026;DHT22;14565;48.626;8.978;2022-07-31T02:14:56;15.50;99.90
27026;DHT22;14565;48.626;8.978;2022-07-31T02:17:23;15.40;99.90
27026;DHT22;14565;48.626;8.978;2022-07-31T02:19:50;15.40;99.90
27026;DHT22;14565;48.626;8.978;2022-07-31T02:22:17;15.50;99.90
27026;DHT22;14565;48.626;8.978;2022-07-31T02:24:43;15.40;99.90
27026;DHT22;14565;48.626;8.978;2022-07-31T02:27:11;15.40;99.90
27026;DHT22;14565;48.626;8.978;2022-07-31T02:29:37;15.20;99.90
27026;DHT22;14565;48.626;8.978;2022-07-31T02:32:04;15.20;99.90
27026;DHT22;14565;48.626;8.978;2022-07-31T02:34:32;15.20;99.90
27026;DHT22;14565;48.626;8.978;2022-07-31T02:37:00;15.20;99.90
27026;DHT22;14565;48.626;8.978;2022-07-31T02:39:29;15.10;99.90
27026;DHT22;14565;48.626;8.978;2022-07-31T02:41:56;15.00;99.90
27026;DHT22;14565;48.626;8.978;2022-07-31T02:44:23;15.00;99.90
27026;DHT22;14565;48.626;8.978;2022-07-31T02:46:49;15.00;99.90
27026;DHT22;14565;48.626;8.978;2022-07-31T02:49:16;14.90;99.90
27026;DHT22;14565;48.626;8.978;2022-07-31T02:51:41;14.90;99.90
27026;DHT22;14565;48.626;8.978;2022-07-31T02:54:07;14.80;99.90
27026;DHT22;14565;48.626;8.978;2022-07-31T02:56:33;14.60;99.90
27026;DHT22;14565;48.626;8.978;2022-07-31T02:58:59;14.70;99.90
27026;DHT22;14565;48.626;8.978;2022-07-31T03:01:25;14.80;99.90
27026;DHT22;14565;48.626;8.978;2022-07-31T03:03:51;14.70;99.90
27026;DHT22;14565;48.626;8.978;2022-07-31T03:06:17;14.80;99.90
27026;DHT22;14565;48.626;8.978;2022-07-31T03:08:43;14.80;99.90
27026;DHT22;14565;48.626;8.978;2022-07-31T03:11:09;14.80;99.90
27026;DHT22;14565;48.626;8.978;2022-07-31T03:13:35;14.90;99.90
27026;DHT22;14565;48.626;8.978;2022-07-31T03:16:03;14.90;99.90
27026;DHT22;14565;48.626;8.978;2022-07-31T03:18:30;14.80;99.90
27026;DHT22;14565;48.626;8.978;2022-07-31T03:20:56;14.80;99.90
27026;DHT22;14565;48.626;8.978;2022-07-31T03:23:25;14.80;99.90
27026;DHT22;14565;48.626;8.978;2022-07-31T03:25:52;14.70;99.90
27026;DHT22;14565;48.626;8.978;2022-07-31T03:28:19;14.60;99.90
27026;DHT22;14565;48.626;8.978;2022-07-31T03:30:48;14.60;99.90
27026;DHT22;14565;48.626;8.978;2022-07-31T03:33:14;14.50;99.90
27026;DHT22;14565;48.626;8.978;2022-07-31T03:35:40;14.50;99.90
27026;DHT22;14565;48.626;8.978;2022-07-31T03:38:06;14.50;99.90
27026;DHT22;14565;48.626;8.978;2022-07-31T03:40:32;14.40;99.90
27026;DHT22;14565;48.626;8.978;2022-07-31T03:43:00;14.40;99.90
27026;DHT22;14565;48.626;8.978;2022-07-31T03:45:26;14.30;99.90
27026;DHT22;14565;48.626;8.978;2022-07-31T03:47:53;14.20;99.90
27026;DHT22;14565;48.626;8.978;2022-07-31T03:50:19;14.10;99.90
27026;DHT22;14565;48.626;8.978;2022-07-31T03:52:45;14.10;99.90
27026;DHT22;14565;48.626;8.978;2022-07-31T03:55:12;14.10;99.90
27026;DHT22;14565;48.626;8.978;2022-07-31T03:57:39;14.30;99.90
27026;DHT22;14565;48.626;8.978;2022-07-31T04:00:08;14.30;99.90
27026;DHT22;14565;48.626;8.978;2022-07-31T04:02:33;14.40;99.90
27026;DHT22;14565;48.626;8.978;2022-07-31T04:04:59;14.50;99.90
27026;DHT22;14565;48.626;8.978;2022-07-31T04:07:25;14.50;99.90
27026;DHT22;14565;48.626;8.978;2022-07-31T04:09:51;14.50;99.90
27026;DHT22;14565;48.626;8.978;2022-07-31T04:12:17;14.60;99.90
27026;DHT22;14565;48.626;8.978;2022-07-31T04:14:43;14.60;99.90
27026;DHT22;14565;48.626;8.978;2022-07-31T04:17:08;14.60;99.90
27026;DHT22;14565;48.626;8.978;2022-07-31T04:19:34;14.70;99.90
27026;DHT22;14565;48.626;8.978;2022-07-31T04:22:00;14.70;99.90
27026;DHT22;14565;48.626;8.978;2022-07-31T04:24:26;14.70;99.90
27026;DHT22;14565;48.626;8.978;2022-07-31T04:26:55;14.80;99.90
27026;DHT22;14565;48.626;8.978;2022-07-31T04:29:22;14.90;99.90
27026;DHT22;14565;48.626;8.978;2022-07-31T04:31:48;15.00;99.90
27026;DHT22;14565;48.626;8.978;2022-07-31T04:34:14;15.10;99.90
27026;DHT22;14565;48.626;8.978;2022-07-31T04:36:39;15.10;99.90
27026;DHT22;14565;48.626;8.978;2022-07-31T04:39:05;15.20;99.90
27026;DHT22;14565;48.626;8.978;2022-07-31T04:41:31;15.40;99.90
27026;DHT22;14565;48.626;8.978;2022-07-31T04:43:57;15.40;99.90
27026;DHT22;14565;48.626;8.978;2022-07-31T04:46:24;15.50;99.90
27026;DHT22;14565;48.626;8.978;2022-07-31T04:48:49;15.50;99.90
27026;DHT22;14565;48.626;8.978;2022-07-31T04:51:21;15.80;99.90
27026;DHT22;14565;48.626;8.978;2022-07-31T04:53:49;16.00;99.90
27026;DHT22;14565;48.626;8.978;2022-07-31T04:56:16;16.30;99.90
27026;DHT22;14565;48.626;8.978;2022-07-31T04:58:58;16.60;99.90
27026;DHT22;14565;48.626;8.978;2022-07-31T05:01:24;16.80;99.90
27026;DHT22;14565;48.626;8.978;2022-07-31T05:03:50;17.00;99.90
27026;DHT22;14565;48.626;8.978;2022-07-31T05:06:16;17.20;99.90
27026;DHT22;14565;48.626;8.978;2022-07-31T05:08:41;17.40;99.90
27026;DHT22;14565;48.626;8.978;2022-07-31T05:11:08;17.60;99.90
27026;DHT22;14565;48.626;8.978;2022-07-31T05:13:54;17.60;99.90
27026;DHT22;14565;48.626;8.978;2022-07-31T05:16:21;17.60;99.90
27026;DHT22;14565;48.626;8.978;2022-07-31T05:18:47;17.90;99.90
27026;DHT22;14565;48.626;8.978;2022-07-31T05:21:14;18.00;99.90
27026;DHT22;14565;48.626;8.978;2022-07-31T05:23:42;18.10;99.90
27026;DHT22;14565;48.626;8.978;2022-07-31T05:26:08;18.00;99.90
27026;DHT22;14565;48.626;8.978;2022-07-31T05:28:35;18.30;99.90
27026;DHT22;14565;48.626;8.978;2022-07-31T05:31:01;18.40;99.90
27026;DHT22;14565;48.626;8.978;2022-07-31T05:33:27;18.30;99.90
27026;DHT22;14565;48.626;8.978;2022-07-31T05:35:54;18.60;99.90
27026;DHT22;14565;48.626;8.978;2022-07-31T05:38:19;19.10;99.90
27026;DHT22;14565;48.626;8.978;2022-07-31T05:40:45;19.40;99.90
27026;DHT22;14565;48.626;8.978;2022-07-31T05:43:11;19.10;99.90
27026;DHT22;14565;48.626;8.978;2022-07-31T05:45:37;19.40;99.90
27026;DHT22;14565;48.626;8.978;2022-07-31T05:48:03;19.40;99.90
27026;DHT22;14565;48.626;8.978;2022-07-31T05:50:29;19.30;99.90
27026;DHT22;14565;48.626;8.978;2022-07-31T05:52:54;19.00;99.90
27026;DHT22;14565;48.626;8.978;2022-07-31T05:55:20;18.90;99.90
27026;DHT22;14565;48.626;8.978;2022-07-31T05:57:46;18.90;99.90
27026;DHT22;14565;48.626;8.978;2022-07-31T06:00:13;19.00;99.90
27026;DHT22;14565;48.626;8.978;2022-07-31T06:02:40;19.40;99.90
27026;DHT22;14565;48.626;8.978;2022-07-31T06:05:06;19.10;99.90
27026;DHT22;14565;48.626;8.978;2022-07-31T06:07:32;18.90;99.90
27026;DHT22;14565;48.626;8.978;2022-07-31T06:09:58;18.60;99.90
27026;DHT22;14565;48.626;8.978;2022-07-31T06:12:24;19.10;99.90
27026;DHT22;14565;48.626;8.978;2022-07-31T06:14:49;19.20;99.90
27026;DHT22;14565;48.626;8.978;2022-07-31T06:17:15;19.30;99.90
27026;DHT22;14565;48.626;8.978;2022-07-31T06:19:41;19.40;99.90
27026;DHT22;14565;48.626;8.978;2022-07-31T06:22:06;19.40;99.90
27026;DHT22;14565;48.626;8.978;2022-07-31T06:24:32;19.60;99.90
27026;DHT22;14565;48.626;8.978;2022-07-31T06:26:58;19.80;99.90
27026;DHT22;14565;48.626;8.978;2022-07-31T06:29:24;20.10;99.90
27026;DHT22;14565;48.626;8.978;2022-07-31T06:31:50;20.00;99.90
27026;DHT22;14565;48.626;8.978;2022-07-31T06:34:15;20.10;99.90
27026;DHT22;14565;48.626;8.978;2022-07-31T06:36:41;20.30;99.90
27026;DHT22;14565;48.626;8.978;2022-07-31T06:39:07;20.70;99.90
27026;DHT22;14565;48.626;8.978;2022-07-31T06:41:32;20.30;99.90
27026;DHT22;14565;48.626;8.978;2022-07-31T06:44:17;20.20;99.90
27026;DHT22;14565;48.626;8.978;2022-07-31T06:46:46;20.10;99.90
27026;DHT22;14565;48.626;8.978;2022-07-31T06:49:13;20.20;99.90
27026;DHT22;14565;48.626;8.978;2022-07-31T06:51:39;20.50;99.90
27026;DHT22;14565;48.626;8.978;2022-07-31T06:54:07;20.80;99.90
27026;DHT22;14565;48.626;8.978;2022-07-31T06:56:34;21.00;99.90
27026;DHT22;14565;48.626;8.978;2022-07-31T06:59:00;21.20;99.90
27026;DHT22;14565;48.626;8.978;2022-07-31T07:01:27;21.40;99.90
27026;DHT22;14565;48.626;8.978;2022-07-31T07:03:52;21.40;99.90
27026;DHT22;14565;48.626;8.978;2022-07-31T07:06:18;21.70;99.90
27026;DHT22;14565;48.626;8.978;2022-07-31T07:08:44;21.70;99.90
27026;DHT22;14565;48.626;8.978;2022-07-31T07:11:10;21.60;99.90
27026;DHT22;14565;48.626;8.978;2022-07-31T07:13:36;22.50;99.90
27026;DHT22;14565;48.626;8.978;2022-07-31T07:16:02;23.80;99.90
27026;DHT22;14565;48.626;8.978;2022-07-31T07:18:27;23.70;99.90
27026;DHT22;14565;48.626;8.978;2022-07-31T07:20:53;23.40;99.90
27026;DHT22;14565;48.626;8.978;2022-07-31T07:23:20;24.00;99.90
27026;DHT22;14565;48.626;8.978;2022-07-31T07:25:46;25.80;97.20
27026;DHT22;14565;48.626;8.978;2022-07-31T07:28:12;25.60;96.40
27026;DHT22;14565;48.626;8.978;2022-07-31T07:30:38;27.10;94.80
27026;DHT22;14565;48.626;8.978;2022-07-31T07:33:04;27.20;93.50
27026;DHT22;14565;48.626;8.978;2022-07-31T07:35:30;27.60;93.00
27026;DHT22;14565;48.626;8.978;2022-07-31T07:37:56;27.40;93.20
27026;DHT22;14565;48.626;8.978;2022-07-31T07:40:22;27.40;93.00
27026;DHT22;14565;48.626;8.978;2022-07-31T07:42:49;28.00;90.50
27026;DHT22;14565;48.626;8.978;2022-07-31T07:45:15;27.50;88.90
27026;DHT22;14565;48.626;8.978;2022-07-31T07:47:41;27.30;90.30
27026;DHT22;14565;48.626;8.978;2022-07-31T07:50:08;28.00;86.40
27026;DHT22;14565;48.626;8.978;2022-07-31T07:52:34;28.20;87.60
27026;DHT22;14565;48.626;8.978;2022-07-31T07:55:00;28.40;84.20
27026;DHT22;14565;48.626;8.978;2022-07-31T07:57:26;28.20;84.00
27026;DHT22;14565;48.626;8.978;2022-07-31T07:59:52;26.70;82.70
27026;DHT22;14565;48.626;8.978;2022-07-31T08:02:17;26.10;84.90
27026;DHT22;14565;48.626;8.978;2022-07-31T08:04:43;25.60;86.70
27026;DHT22;14565;48.626;8.978;2022-07-31T08:07:09;26.20;86.60
27026;DHT22;14565;48.626;8.978;2022-07-31T08:09:35;26.70;85.80
27026;DHT22;14565;48.626;8.978;2022-07-31T08:12:02;25.80;87.10
27026;DHT22;14565;48.626;8.978;2022-07-31T08:14:28;25.80;90.50
27026;DHT22;14565;48.626;8.978;2022-07-31T08:16:55;25.60;87.40
27026;DHT22;14565;48.626;8.978;2022-07-31T08:19:20;25.30;89.40
27026;DHT22;14565;48.626;8.978;2022-07-31T08:21:46;25.90;90.60
27026;DHT22;14565;48.626;8.978;2022-07-31T08:24:12;25.30;88.80
27026;DHT22;14565;48.626;8.978;2022-07-31T08:26:40;26.00;90.40
27026;DHT22;14565;48.626;8.978;2022-07-31T08:29:25;26.50;87.30
27026;DHT22;14565;48.626;8.978;2022-07-31T08:31:50;25.70;87.20
27026;DHT22;14565;48.626;8.978;2022-07-31T08:34:17;25.50;88.80
27026;DHT22;14565;48.626;8.978;2022-07-31T08:36:42;25.30;89.00
27026;DHT22;14565;48.626;8.978;2022-07-31T08:39:08;25.80;89.90
27026;DHT22;14565;48.626;8.978;2022-07-31T08:41:36;26.70;88.60
27026;DHT22;14565;48.626;8.978;2022-07-31T08:44:06;27.30;85.50
27026;DHT22;14565;48.626;8.978;2022-07-31T08:46:37;27.40;85.40
27026;DHT22;14565;48.626;8.978;2022-07-31T08:49:04;27.00;87.50
27026;DHT22;14565;48.626;8.978;2022-07-31T08:51:34;27.00;88.90
27026;DHT22;14565;48.626;8.978;2022-07-31T08:54:02;27.40;85.80
27026;DHT22;14565;48.626;8.978;2022-07-31T08:56:32;27.50;85.00
27026;DHT22;14565;48.626;8.978;2022-07-31T08:58:57;28.10;85.60
27026;DHT22;14565;48.626;8.978;2022-07-31T09:01:24;28.60;81.10
27026;DHT22;14565;48.626;8.978;2022-07-31T09:03:50;28.90;81.20
27026;DHT22;14565;48.626;8.978;2022-07-31T09:06:15;28.70;84.00
27026;DHT22;14565;48.626;8.978;2022-07-31T09:08:41;28.20;83.50
27026;DHT22;14565;48.626;8.978;2022-07-31T09:11:08;27.40;81.90
27026;DHT22;14565;48.626;8.978;2022-07-31T09:13:34;27.90;85.20
27026;DHT22;14565;48.626;8.978;2022-07-31T09:16:00;28.30;83.80
27026;DHT22;14565;48.626;8.978;2022-07-31T09:18:26;28.00;81.70
27026;DHT22;14565;48.626;8.978;2022-07-31T09:21:00;28.30;81.40
27026;DHT22;14565;48.626;8.978;2022-07-31T09:23:27;27.90;81.90
27026;DHT22;14565;48.626;8.978;2022-07-31T09:25:57;27.80;80.40
27026;DHT22;14565;48.626;8.978;2022-07-31T09:28:34;28.60;77.50
27026;DHT22;14565;48.626;8.978;2022-07-31T09:31:01;27.90;77.30
27026;DHT22;14565;48.626;8.978;2022-07-31T09:33:28;28.60;81.50
27026;DHT22;14565;48.626;8.978;2022-07-31T09:35:56;29.30;81.10
27026;DHT22;14565;48.626;8.978;2022-07-31T09:38:29;29.30;79.40
27026;DHT22;14565;48.626;8.978;2022-07-31T09:41:06;29.60;79.80
27026;DHT22;14565;48.626;8.978;2022-07-31T09:43:33;28.50;78.00
27026;DHT22;14565;48.626;8.978;2022-07-31T09:46:00;28.30;80.20
27026;DHT22;14565;48.626;8.978;2022-07-31T09:48:26;27.60;78.10
27026;DHT22;14565;48.626;8.978;2022-07-31T09:50:57;28.00;78.20
27026;DHT22;14565;48.626;8.978;2022-07-31T09:53:23;26.90;80.80
27026;DHT22;14565;48.626;8.978;2022-07-31T09:55:53;26.30;81.50
27026;DHT22;14565;48.626;8.978;2022-07-31T09:58:21;26.30;83.60
27026;DHT22;14565;48.626;8.978;2022-07-31T10:00:50;26.40;82.00
27026;DHT22;14565;48.626;8.978;2022-07-31T10:03:17;26.70;82.50
27026;DHT22;14565;48.626;8.978;2022-07-31T10:05:46;28.10;81.10
27026;DHT22;14565;48.626;8.978;2022-07-31T10:08:13;28.40;79.10
27026;DHT22;14565;48.626;8.978;2022-07-31T10:10:42;28.80;78.20
27026;DHT22;14565;48.626;8.978;2022-07-31T10:13:11;28.80;76.80
27026;DHT22;14565;48.626;8.978;2022-07-31T10:15:40;29.30;75.20
27026;DHT22;14565;48.626;8.978;2022-07-31T10:18:07;30.00;75.60
27026;DHT22;14565;48.626;8.978;2022-07-31T10:20:34;29.90;77.90
27026;DHT22;14565;48.626;8.978;2022-07-31T10:23:14;29.10;76.60
27026;DHT22;14565;48.626;8.978;2022-07-31T10:25:47;28.80;78.60
27026;DHT22;14565;48.626;8.978;2022-07-31T10:28:13;28.70;79.80
27026;DHT22;14565;48.626;8.978;2022-07-31T10:30:38;28.70;78.10
27026;DHT22;14565;48.626;8.978;2022-07-31T10:33:04;29.40;79.70
27026;DHT22;14565;48.626;8.978;2022-07-31T10:35:31;28.90;77.60
27026;DHT22;14565;48.626;8.978;2022-07-31T10:38:06;29.60;77.50
27026;DHT22;14565;48.626;8.978;2022-07-31T10:40:39;29.70;78.50
27026;DHT22;14565;48.626;8.978;2022-07-31T10:43:26;28.70;75.70
27026;DHT22;14565;48.626;8.978;2022-07-31T10:45:53;27.80;78.20
27026;DHT22;14565;48.626;8.978;2022-07-31T10:48:21;27.50;79.00
27026;DHT22;14565;48.626;8.978;2022-07-31T10:50:48;27.10;81.10
27026;DHT22;14565;48.626;8.978;2022-07-31T10:53:24;27.00;80.60
27026;DHT22;14565;48.626;8.978;2022-07-31T10:56:07;27.00;80.50
27026;DHT22;14565;48.626;8.978;2022-07-31T10:58:57;27.30;79.70
27026;DHT22;14565;48.626;8.978;2022-07-31T11:01:23;27.10;78.50
27026;DHT22;14565;48.626;8.978;2022-07-31T11:03:59;27.10;79.00
27026;DHT22;14565;48.626;8.978;2022-07-31T11:06:31;27.00;78.10
27026;DHT22;14565;48.626;8.978;2022-07-31T11:09:02;27.00;78.70
27026;DHT22;14565;48.626;8.978;2022-07-31T11:11:32;27.20;79.50
27026;DHT22;14565;48.626;8.978;2022-07-31T11:13:58;27.60;78.40
27026;DHT22;14565;48.626;8.978;2022-07-31T11:16:25;27.80;78.50
27026;DHT22;14565;48.626;8.978;2022-07-31T11:19:02;28.50;78.50
27026;DHT22;14565;48.626;8.978;2022-07-31T11:21:37;28.90;75.10
27026;DHT22;14565;48.626;8.978;2022-07-31T11:24:20;28.90;76.70
27026;DHT22;14565;48.626;8.978;2022-07-31T11:26:55;29.30;73.90
27026;DHT22;14565;48.626;8.978;2022-07-31T11:29:31;29.50;77.70
27026;DHT22;14565;48.626;8.978;2022-07-31T11:32:12;29.30;77.10
27026;DHT22;14565;48.626;8.978;2022-07-31T11:34:50;29.60;78.30
27026;DHT22;14565;48.626;8.978;2022-07-31T11:37:28;29.40;75.00
27026;DHT22;14565;48.626;8.978;2022-07-31T11:39:55;28.50;75.60
27026;DHT22;14565;48.626;8.978;2022-07-31T11:42:25;28.40;75.70
27026;DHT22;14565;48.626;8.978;2022-07-31T11:44:52;28.80;73.70
27026;DHT22;14565;48.626;8.978;2022-07-31T11:47:38;28.50;73.30
27026;DHT22;14565;48.626;8.978;2022-07-31T11:50:05;28.60;75.40
27026;DHT22;14565;48.626;8.978;2022-07-31T11:52:32;29.30;76.10
27026;DHT22;14565;48.626;8.978;2022-07-31T11:55:10;29.80;73.70
27026;DHT22;14565;48.626;8.978;2022-07-31T11:57:36;29.50;70.40
27026;DHT22;14565;48.626;8.978;2022-07-31T12:00:20;29.60;72.30
27026;DHT22;14565;48.626;8.978;2022-07-31T12:02:46;29.60;73.20
27026;DHT22;14565;48.626;8.978;2022-07-31T12:05:12;29.80;71.40
27026;DHT22;14565;48.626;8.978;2022-07-31T12:07:41;30.30;68.50
27026;DHT22;14565;48.626;8.978;2022-07-31T12:10:11;29.60;72.10
27026;DHT22;14565;48.626;8.978;2022-07-31T12:12:38;29.70;74.10
27026;DHT22;14565;48.626;8.978;2022-07-31T12:15:18;30.00;75.10
27026;DHT22;14565;48.626;8.978;2022-07-31T12:17:45;30.00;70.10
27026;DHT22;14565;48.626;8.978;2022-07-31T12:20:11;30.30;73.50
27026;DHT22;14565;48.626;8.978;2022-07-31T12:22:38;30.20;75.10
27026;DHT22;14565;48.626;8.978;2022-07-31T12:25:04;29.70;73.10
27026;DHT22;14565;48.626;8.978;2022-07-31T12:27:34;29.90;75.80
27026;DHT22;14565;48.626;8.978;2022-07-31T12:30:12;30.00;74.60
27026;DHT22;14565;48.626;8.978;2022-07-31T12:32:37;29.80;73.80
27026;DHT22;14565;48.626;8.978;2022-07-31T12:35:03;29.90;72.00
27026;DHT22;14565;48.626;8.978;2022-07-31T12:37:40;29.90;74.40
27026;DHT22;14565;48.626;8.978;2022-07-31T12:40:06;29.80;74.40
27026;DHT22;14565;48.626;8.978;2022-07-31T12:42:34;29.90;72.40
27026;DHT22;14565;48.626;8.978;2022-07-31T12:45:03;29.90;70.90
27026;DHT22;14565;48.626;8.978;2022-07-31T12:47:30;30.00;69.50
27026;DHT22;14565;48.626;8.978;2022-07-31T12:49:57;29.70;68.50
27026;DHT22;14565;48.626;8.978;2022-07-31T12:52:23;29.40;69.70
27026;DHT22;14565;48.626;8.978;2022-07-31T12:54:50;29.50;70.00
27026;DHT22;14565;48.626;8.978;2022-07-31T12:57:15;29.70;71.60
27026;DHT22;14565;48.626;8.978;2022-07-31T12:59:41;29.40;70.50
27026;DHT22;14565;48.626;8.978;2022-07-31T13:02:07;29.40;68.10
27026;DHT22;14565;48.626;8.978;2022-07-31T13:04:33;29.40;69.80
27026;DHT22;14565;48.626;8.978;2022-07-31T13:06:59;29.60;70.30
27026;DHT22;14565;48.626;8.978;2022-07-31T13:09:25;29.50;69.90
27026;DHT22;14565;48.626;8.978;2022-07-31T13:11:51;29.80;71.60
27026;DHT22;14565;48.626;8.978;2022-07-31T13:14:17;29.70;71.90
27026;DHT22;14565;48.626;8.978;2022-07-31T13:16:45;29.40;70.80
27026;DHT22;14565;48.626;8.978;2022-07-31T13:19:11;29.60;69.30
27026;DHT22;14565;48.626;8.978;2022-07-31T13:21:37;29.60;70.50
27026;DHT22;14565;48.626;8.978;2022-07-31T13:24:03;29.40;70.40
27026;DHT22;14565;48.626;8.978;2022-07-31T13:26:36;29.40;72.10
27026;DHT22;14565;48.626;8.978;2022-07-31T13:29:03;29.10;70.20
27026;DHT22;14565;48.626;8.978;2022-07-31T13:31:29;28.90;73.20
27026;DHT22;14565;48.626;8.978;2022-07-31T13:33:55;29.00;72.40
27026;DHT22;14565;48.626;8.978;2022-07-31T13:36:21;29.00;70.80
27026;DHT22;14565;48.626;8.978;2022-07-31T13:38:47;28.80;69.40
27026;DHT22;14565;48.626;8.978;2022-07-31T13:41:13;29.00;70.10
27026;DHT22;14565;48.626;8.978;2022-07-31T13:44:08;28.90;68.70
27026;DHT22;14565;48.626;8.978;2022-07-31T13:46:34;28.80;69.40
27026;DHT22;14565;48.626;8.978;2022-07-31T13:49:00;29.00;70.50
27026;DHT22;14565;48.626;8.978;2022-07-31T13:51:26;29.10;70.50
27026;DHT22;14565;48.626;8.978;2022-07-31T13:53:52;29.30;73.10
27026;DHT22;14565;48.626;8.978;2022-07-31T13:56:18;29.30;68.10
27026;DHT22;14565;48.626;8.978;2022-07-31T13:58:45;29.00;68.60
27026;DHT22;14565;48.626;8.978;2022-07-31T14:01:11;29.10;68.50
27026;DHT22;14565;48.626;8.978;2022-07-31T14:03:37;29.40;71.60
27026;DHT22;14565;48.626;8.978;2022-07-31T14:06:03;29.50;73.30
27026;DHT22;14565;48.626;8.978;2022-07-31T14:08:28;29.40;68.90
27026;DHT22;14565;48.626;8.978;2022-07-31T14:10:54;29.50;68.30
27026;DHT22;14565;48.626;8.978;2022-07-31T14:13:21;29.50;66.50
27026;DHT22;14565;48.626;8.978;2022-07-31T14:15:47;29.40;70.10
27026;DHT22;14565;48.626;8.978;2022-07-31T14:18:12;29.10;66.50
27026;DHT22;14565;48.626;8.978;2022-07-31T14:20:38;29.00;66.80
27026;DHT22;14565;48.626;8.978;2022-07-31T14:23:04;29.00;67.30
27026;DHT22;14565;48.626;8.978;2022-07-31T14:25:36;29.10;68.80
27026;DHT22;14565;48.626;8.978;2022-07-31T14:28:03;29.00;65.70
27026;DHT22;14565;48.626;8.978;2022-07-31T14:30:29;29.00;67.60
27026;DHT22;14565;48.626;8.978;2022-07-31T14:32:56;29.00;68.50
27026;DHT22;14565;48.626;8.978;2022-07-31T14:35:21;29.00;66.10
27026;DHT22;14565;48.626;8.978;2022-07-31T14:37:47;29.10;68.90
27026;DHT22;14565;48.626;8.978;2022-07-31T14:40:13;29.10;67.70
27026;DHT22;14565;48.626;8.978;2022-07-31T14:42:39;29.30;66.90
27026;DHT22;14565;48.626;8.978;2022-07-31T14:45:06;29.60;67.20
27026;DHT22;14565;48.626;8.978;2022-07-31T14:47:33;29.80;67.10
27026;DHT22;14565;48.626;8.978;2022-07-31T14:49:58;30.00;66.90
27026;DHT22;14565;48.626;8.978;2022-07-31T14:52:24;29.80;67.20
27026;DHT22;14565;48.626;8.978;2022-07-31T14:54:50;29.80;67.40
27026;DHT22;14565;48.626;8.978;2022-07-31T14:57:16;30.00;67.60
27026;DHT22;14565;48.626;8.978;2022-07-31T14:59:41;29.60;66.60
27026;DHT22;14565;48.626;8.978;2022-07-31T15:02:07;29.70;67.60
27026;DHT22;14565;48.626;8.978;2022-07-31T15:04:33;29.60;68.80
27026;DHT22;14565;48.626;8.978;2022-07-31T15:06:59;29.40;69.40
27026;DHT22;14565;48.626;8.978;2022-07-31T15:09:25;29.30;71.30
27026;DHT22;14565;48.626;8.978;2022-07-31T15:11:51;29.10;68.10
27026;DHT22;14565;48.626;8.978;2022-07-31T15:14:17;29.40;68.20
27026;DHT22;14565;48.626;8.978;2022-07-31T15:16:43;29.30;66.90
27026;DHT22;14565;48.626;8.978;2022-07-31T15:19:09;29.40;67.70
27026;DHT22;14565;48.626;8.978;2022-07-31T15:21:36;29.50;68.70
27026;DHT22;14565;48.626;8.978;2022-07-31T15:24:02;29.50;68.90
27026;DHT22;14565;48.626;8.978;2022-07-31T15:26:28;29.80;68.70
27026;DHT22;14565;48.626;8.978;2022-07-31T15:28:54;30.00;68.90
27026;DHT22;14565;48.626;8.978;2022-07-31T15:31:20;29.90;66.50
27026;DHT22;14565;48.626;8.978;2022-07-31T15:33:45;29.80;70.60
27026;DHT22;14565;48.626;8.978;2022-07-31T15:36:11;29.70;68.80